sensor_id;sensor_type;location;lat;lon;timestamp;P1;durP1;ratioP1;P2;durP2;ratioP2
48578;SDS011;34357;51.948;6.132;2023-06-19T00:02:09;8.00;;;7.20;;
48578;SDS011;34357;51.948;6.132;2023-06-19T00:04:35;8.10;;;7.13;;
48578;SDS011;34357;51.948;6.132;2023-06-19T00:07:00;9.23;;;7.03;;
48578;SDS011;34357;51.948;6.132;2023-06-19T00:09:26;9.25;;;7.10;;
48578;SDS011;34357;51.948;6.132;2023-06-19T00:11:52;10.85;;;7.43;;
48578;SDS011;34357;51.948;6.132;2023-06-19T00:14:18;9.95;;;7.40;;
48578;SDS011;34357;51.948;6.132;2023-06-19T00:16:44;10.07;;;7.18;;
48578;SDS011;34357;51.948;6.132;2023-06-19T00:19:09;8.18;;;6.93;;
48578;SDS011;34357;51.948;6.132;2023-06-19T00:21:37;8.00;;;6.97;;
48578;SDS011;34357;51.948;6.132;2023-06-19T00:24:03;12.38;;;6.95;;
48578;SDS011;34357;51.948;6.132;2023-06-19T00:26:30;9.15;;;6.85;;
48578;SDS011;34357;51.948;6.132;2023-06-19T00:28:55;10.70;;;6.88;;
48578;SDS011;34357;51.948;6.132;2023-06-19T00:31:21;7.40;;;6.57;;
48578;SDS011;34357;51.948;6.132;2023-06-19T00:33:48;7.78;;;6.50;;
48578;SDS011;34357;51.948;6.132;2023-06-19T00:36:15;7.50;;;6.00;;
48578;SDS011;34357;51.948;6.132;2023-06-19T00:38:45;9.75;;;7.05;;
48578;SDS011;34357;51.948;6.132;2023-06-19T00:41:11;7.43;;;5.82;;
48578;SDS011;34357;51.948;6.132;2023-06-19T00:43:37;9.93;;;6.35;;
48578;SDS011;34357;51.948;6.132;2023-06-19T00:46:02;7.85;;;5.97;;
48578;SDS011;34357;51.948;6.132;2023-06-19T00:48:29;9.80;;;6.28;;
48578;SDS011;34357;51.948;6.132;2023-06-19T00:50:56;7.55;;;5.90;;
48578;SDS011;34357;51.948;6.132;2023-06-19T00:53:23;7.25;;;5.75;;
48578;SDS011;34357;51.948;6.132;2023-06-19T00:55:50;9.07;;;5.40;;
48578;SDS011;34357;51.948;6.132;2023-06-19T00:58:20;8.32;;;5.65;;
48578;SDS011;34357;51.948;6.132;2023-06-19T01:00:47;8.48;;;5.70;;
48578;SDS011;34357;51.948;6.132;2023-06-19T01:03:13;10.10;;;5.97;;
48578;SDS011;34357;51.948;6.132;2023-06-19T01:05:40;11.63;;;5.85;;
48578;SDS011;34357;51.948;6.132;2023-06-19T01:08:12;9.30;;;6.03;;
48578;SDS011;34357;51.948;6.132;2023-06-19T01:10:57;7.28;;;5.85;;
48578;SDS011;34357;51.948;6.132;2023-06-19T01:13:48;5.97;;;5.45;;
48578;SDS011;34357;51.948;6.132;2023-06-19T01:16:19;6.65;;;5.85;;
48578;SDS011;34357;51.948;6.132;2023-06-19T01:18:46;12.32;;;6.53;;
48578;SDS011;34357;51.948;6.132;2023-06-19T01:21:14;9.18;;;6.68;;
48578;SDS011;34357;51.948;6.132;2023-06-19T01:23:41;10.82;;;6.35;;
48578;SDS011;34357;51.948;6.132;2023-06-19T01:26:08;10.95;;;5.88;;
48578;SDS011;34357;51.948;6.132;2023-06-19T01:28:36;7.70;;;5.85;;
48578;SDS011;34357;51.948;6.132;2023-06-19T01:34:12;7.78;;;6.53;;
48578;SDS011;34357;51.948;6.132;2023-06-19T01:36:43;11.32;;;6.30;;
48578;SDS011;34357;51.948;6.132;2023-06-19T01:39:09;8.15;;;6.47;;
48578;SDS011;34357;51.948;6.132;2023-06-19T01:41:37;8.15;;;6.13;;
48578;SDS011;34357;51.948;6.132;2023-06-19T01:44:05;9.07;;;6.88;;
48578;SDS011;34357;51.948;6.132;2023-06-19T01:46:31;10.75;;;6.75;;
48578;SDS011;34357;51.948;6.132;2023-06-19T01:48:57;8.73;;;6.63;;
48578;SDS011;34357;51.948;6.132;2023-06-19T01:51:24;9.10;;;6.28;;
48578;SDS011;34357;51.948;6.132;2023-06-19T01:53:50;14.23;;;6.57;;
48578;SDS011;34357;51.948;6.132;2023-06-19T01:56:16;9.95;;;6.75;;
48578;SDS011;34357;51.948;6.132;2023-06-19T01:58:41;10.52;;;6.60;;
48578;SDS011;34357;51.948;6.132;2023-06-19T02:01:07;8.57;;;6.85;;
48578;SDS011;34357;51.948;6.132;2023-06-19T02:03:33;8.18;;;6.40;;
48578;SDS011;34357;51.948;6.132;2023-06-19T02:05:59;10.07;;;6.82;;
48578;SDS011;34357;51.948;6.132;2023-06-19T02:08:25;11.30;;;6.45;;
48578;SDS011;34357;51.948;6.132;2023-06-19T02:10:51;9.43;;;6.43;;
48578;SDS011;34357;51.948;6.132;2023-06-19T02:13:17;7.68;;;6.38;;
48578;SDS011;34357;51.948;6.132;2023-06-19T02:15:42;14.65;;;7.05;;
48578;SDS011;34357;51.948;6.132;2023-06-19T02:18:08;9.75;;;6.75;;
48578;SDS011;34357;51.948;6.132;2023-06-19T02:20:34;6.55;;;5.65;;
48578;SDS011;34357;51.948;6.132;2023-06-19T02:23:00;8.25;;;6.43;;
48578;SDS011;34357;51.948;6.132;2023-06-19T02:25:26;7.93;;;6.45;;
48578;SDS011;34357;51.948;6.132;2023-06-19T02:27:52;9.32;;;6.07;;
48578;SDS011;34357;51.948;6.132;2023-06-19T02:30:18;7.90;;;5.63;;
48578;SDS011;34357;51.948;6.132;2023-06-19T02:32:44;9.07;;;6.10;;
48578;SDS011;34357;51.948;6.132;2023-06-19T02:35:10;7.43;;;4.68;;
48578;SDS011;34357;51.948;6.132;2023-06-19T02:37:37;7.00;;;4.45;;
48578;SDS011;34357;51.948;6.132;2023-06-19T02:40:03;6.40;;;4.60;;
48578;SDS011;34357;51.948;6.132;2023-06-19T02:42:31;7.97;;;4.90;;
48578;SDS011;34357;51.948;6.132;2023-06-19T02:44:57;5.78;;;4.47;;
48578;SDS011;34357;51.948;6.132;2023-06-19T02:47:29;7.53;;;4.57;;
48578;SDS011;34357;51.948;6.132;2023-06-19T02:49:56;6.05;;;3.92;;
48578;SDS011;34357;51.948;6.132;2023-06-19T02:52:22;8.15;;;4.45;;
48578;SDS011;34357;51.948;6.132;2023-06-19T02:54:48;6.18;;;4.15;;
48578;SDS011;34357;51.948;6.132;2023-06-19T02:57:14;5.68;;;3.83;;
48578;SDS011;34357;51.948;6.132;2023-06-19T02:59:41;4.28;;;3.88;;
48578;SDS011;34357;51.948;6.132;2023-06-19T03:02:07;6.15;;;4.03;;
48578;SDS011;34357;51.948;6.132;2023-06-19T03:04:33;6.88;;;4.05;;
48578;SDS011;34357;51.948;6.132;2023-06-19T03:06:58;5.65;;;4.47;;
48578;SDS011;34357;51.948;6.132;2023-06-19T03:09:24;6.55;;;4.40;;
48578;SDS011;34357;51.948;6.132;2023-06-19T03:11:50;4.57;;;3.88;;
48578;SDS011;34357;51.948;6.132;2023-06-19T03:14:16;5.88;;;4.18;;
48578;SDS011;34357;51.948;6.132;2023-06-19T03:16:42;4.88;;;3.65;;
48578;SDS011;34357;51.948;6.132;2023-06-19T03:19:08;4.97;;;4.25;;
48578;SDS011;34357;51.948;6.132;2023-06-19T03:21:34;5.20;;;4.30;;
48578;SDS011;34357;51.948;6.132;2023-06-19T03:24:00;5.95;;;4.10;;
48578;SDS011;34357;51.948;6.132;2023-06-19T03:26:26;5.35;;;4.05;;
48578;SDS011;34357;51.948;6.132;2023-06-19T03:28:56;5.93;;;3.88;;
48578;SDS011;34357;51.948;6.132;2023-06-19T03:31:24;6.47;;;3.88;;
48578;SDS011;34357;51.948;6.132;2023-06-19T03:33:50;5.60;;;3.95;;
48578;SDS011;34357;51.948;6.132;2023-06-19T03:36:16;8.18;;;4.55;;
48578;SDS011;34357;51.948;6.132;2023-06-19T03:38:49;4.60;;;3.63;;
48578;SDS011;34357;51.948;6.132;2023-06-19T03:41:19;3.83;;;3.35;;
48578;SDS011;34357;51.948;6.132;2023-06-19T03:43:45;6.00;;;3.33;;
48578;SDS011;34357;51.948;6.132;2023-06-19T03:46:11;3.80;;;3.10;;
48578;SDS011;34357;51.948;6.132;2023-06-19T03:48:37;4.80;;;3.20;;
48578;SDS011;34357;51.948;6.132;2023-06-19T03:51:03;6.43;;;3.08;;
48578;SDS011;34357;51.948;6.132;2023-06-19T03:53:29;7.22;;;2.95;;
48578;SDS011;34357;51.948;6.132;2023-06-19T03:55:54;4.53;;;2.92;;
48578;SDS011;34357;51.948;6.132;2023-06-19T03:58:20;3.95;;;3.13;;
48578;SDS011;34357;51.948;6.132;2023-06-19T04:00:46;3.65;;;2.95;;
48578;SDS011;34357;51.948;6.132;2023-06-19T04:03:11;3.67;;;2.92;;
48578;SDS011;34357;51.948;6.132;2023-06-19T04:05:38;4.35;;;3.28;;
48578;SDS011;34357;51.948;6.132;2023-06-19T04:08:06;5.90;;;3.45;;
48578;SDS011;34357;51.948;6.132;2023-06-19T04:10:32;4.50;;;3.60;;
48578;SDS011;34357;51.948;6.132;2023-06-19T04:12:59;8.23;;;3.28;;
48578;SDS011;34357;51.948;6.132;2023-06-19T04:15:24;4.28;;;3.20;;
48578;SDS011;34357;51.948;6.132;2023-06-19T04:17:51;5.00;;;3.30;;
48578;SDS011;34357;51.948;6.132;2023-06-19T04:20:17;3.90;;;2.80;;
48578;SDS011;34357;51.948;6.132;2023-06-19T04:22:45;4.38;;;3.38;;
48578;SDS011;34357;51.948;6.132;2023-06-19T04:25:11;4.53;;;3.40;;
48578;SDS011;34357;51.948;6.132;2023-06-19T04:27:37;4.43;;;3.35;;
48578;SDS011;34357;51.948;6.132;2023-06-19T04:30:03;6.90;;;3.25;;
48578;SDS011;34357;51.948;6.132;2023-06-19T04:32:32;6.78;;;3.67;;
48578;SDS011;34357;51.948;6.132;2023-06-19T04:34:59;4.57;;;3.67;;
48578;SDS011;34357;51.948;6.132;2023-06-19T04:37:25;5.63;;;3.65;;
48578;SDS011;34357;51.948;6.132;2023-06-19T04:39:51;4.75;;;2.85;;
48578;SDS011;34357;51.948;6.132;2023-06-19T04:42:17;3.95;;;3.20;;
48578;SDS011;34357;51.948;6.132;2023-06-19T04:44:44;5.05;;;3.30;;
48578;SDS011;34357;51.948;6.132;2023-06-19T04:47:10;9.05;;;4.03;;
48578;SDS011;34357;51.948;6.132;2023-06-19T04:49:36;4.43;;;4.00;;
48578;SDS011;34357;51.948;6.132;2023-06-19T04:52:02;4.30;;;3.40;;
48578;SDS011;34357;51.948;6.132;2023-06-19T04:54:28;6.68;;;3.50;;
48578;SDS011;34357;51.948;6.132;2023-06-19T04:56:54;3.67;;;3.38;;
48578;SDS011;34357;51.948;6.132;2023-06-19T04:59:19;4.38;;;3.38;;
48578;SDS011;34357;51.948;6.132;2023-06-19T05:01:45;4.97;;;3.70;;
48578;SDS011;34357;51.948;6.132;2023-06-19T05:04:11;5.15;;;3.95;;
48578;SDS011;34357;51.948;6.132;2023-06-19T05:06:37;9.63;;;5.10;;
48578;SDS011;34357;51.948;6.132;2023-06-19T05:09:03;5.20;;;4.00;;
48578;SDS011;34357;51.948;6.132;2023-06-19T05:11:29;7.22;;;4.60;;
48578;SDS011;34357;51.948;6.132;2023-06-19T05:13:55;5.80;;;3.97;;
48578;SDS011;34357;51.948;6.132;2023-06-19T05:16:20;7.25;;;4.18;;
48578;SDS011;34357;51.948;6.132;2023-06-19T05:18:48;5.95;;;4.15;;
48578;SDS011;34357;51.948;6.132;2023-06-19T05:21:14;6.00;;;4.38;;
48578;SDS011;34357;51.948;6.132;2023-06-19T05:23:40;6.75;;;4.68;;
48578;SDS011;34357;51.948;6.132;2023-06-19T05:26:06;6.82;;;4.68;;
48578;SDS011;34357;51.948;6.132;2023-06-19T05:28:32;7.68;;;5.00;;
48578;SDS011;34357;51.948;6.132;2023-06-19T05:30:57;5.07;;;4.57;;
48578;SDS011;34357;51.948;6.132;2023-06-19T05:33:23;5.43;;;4.93;;
48578;SDS011;34357;51.948;6.132;2023-06-19T05:35:49;7.38;;;4.95;;
48578;SDS011;34357;51.948;6.132;2023-06-19T05:38:19;8.18;;;5.18;;
48578;SDS011;34357;51.948;6.132;2023-06-19T05:40:45;9.02;;;4.65;;
48578;SDS011;34357;51.948;6.132;2023-06-19T05:43:11;9.10;;;5.13;;
48578;SDS011;34357;51.948;6.132;2023-06-19T05:45:37;6.72;;;5.32;;
48578;SDS011;34357;51.948;6.132;2023-06-19T05:48:03;6.60;;;5.63;;
48578;SDS011;34357;51.948;6.132;2023-06-19T05:50:29;6.80;;;6.07;;
48578;SDS011;34357;51.948;6.132;2023-06-19T05:52:56;8.35;;;5.72;;
48578;SDS011;34357;51.948;6.132;2023-06-19T05:55:21;8.55;;;6.10;;
48578;SDS011;34357;51.948;6.132;2023-06-19T05:57:50;10.07;;;6.60;;
48578;SDS011;34357;51.948;6.132;2023-06-19T06:00:16;9.30;;;6.93;;
48578;SDS011;34357;51.948;6.132;2023-06-19T06:02:42;10.48;;;6.13;;
48578;SDS011;34357;51.948;6.132;2023-06-19T06:05:08;11.52;;;7.22;;
48578;SDS011;34357;51.948;6.132;2023-06-19T06:07:34;9.75;;;7.82;;
48578;SDS011;34357;51.948;6.132;2023-06-19T06:10:00;11.80;;;8.15;;
48578;SDS011;34357;51.948;6.132;2023-06-19T06:12:25;12.00;;;9.20;;
48578;SDS011;34357;51.948;6.132;2023-06-19T06:14:51;13.13;;;9.00;;
48578;SDS011;34357;51.948;6.132;2023-06-19T06:17:17;10.38;;;8.05;;
48578;SDS011;34357;51.948;6.132;2023-06-19T06:19:42;10.70;;;8.45;;
48578;SDS011;34357;51.948;6.132;2023-06-19T06:22:08;10.93;;;7.82;;
48578;SDS011;34357;51.948;6.132;2023-06-19T06:24:34;12.68;;;8.15;;
48578;SDS011;34357;51.948;6.132;2023-06-19T06:26:59;10.23;;;7.30;;
48578;SDS011;34357;51.948;6.132;2023-06-19T06:29:25;9.60;;;8.35;;
48578;SDS011;34357;51.948;6.132;2023-06-19T06:31:51;9.93;;;7.22;;
48578;SDS011;34357;51.948;6.132;2023-06-19T06:34:18;8.20;;;7.38;;
48578;SDS011;34357;51.948;6.132;2023-06-19T06:36:44;8.80;;;7.80;;
48578;SDS011;34357;51.948;6.132;2023-06-19T06:39:10;10.40;;;8.10;;
48578;SDS011;34357;51.948;6.132;2023-06-19T06:41:36;10.43;;;7.50;;
48578;SDS011;34357;51.948;6.132;2023-06-19T06:44:04;11.93;;;7.65;;
48578;SDS011;34357;51.948;6.132;2023-06-19T06:46:30;10.02;;;7.88;;
48578;SDS011;34357;51.948;6.132;2023-06-19T06:48:56;11.77;;;8.05;;
48578;SDS011;34357;51.948;6.132;2023-06-19T06:51:22;13.93;;;8.40;;
48578;SDS011;34357;51.948;6.132;2023-06-19T06:53:47;10.18;;;7.47;;
48578;SDS011;34357;51.948;6.132;2023-06-19T06:56:13;10.65;;;8.25;;
48578;SDS011;34357;51.948;6.132;2023-06-19T06:58:39;8.95;;;7.82;;
48578;SDS011;34357;51.948;6.132;2023-06-19T07:01:04;10.52;;;7.88;;
48578;SDS011;34357;51.948;6.132;2023-06-19T07:03:30;12.55;;;8.32;;
48578;SDS011;34357;51.948;6.132;2023-06-19T07:05:57;9.27;;;7.82;;
48578;SDS011;34357;51.948;6.132;2023-06-19T07:08:23;8.65;;;7.60;;
48578;SDS011;34357;51.948;6.132;2023-06-19T07:10:48;13.38;;;8.18;;
48578;SDS011;34357;51.948;6.132;2023-06-19T07:13:14;9.57;;;7.90;;
48578;SDS011;34357;51.948;6.132;2023-06-19T07:15:40;9.32;;;8.18;;
48578;SDS011;34357;51.948;6.132;2023-06-19T07:18:06;13.07;;;7.93;;
48578;SDS011;34357;51.948;6.132;2023-06-19T07:20:32;8.98;;;8.10;;
48578;SDS011;34357;51.948;6.132;2023-06-19T07:22:58;10.85;;;7.75;;
48578;SDS011;34357;51.948;6.132;2023-06-19T07:25:25;11.88;;;7.93;;
48578;SDS011;34357;51.948;6.132;2023-06-19T07:27:51;11.13;;;8.02;;
48578;SDS011;34357;51.948;6.132;2023-06-19T07:30:17;10.88;;;8.15;;
48578;SDS011;34357;51.948;6.132;2023-06-19T07:32:42;8.13;;;7.32;;
48578;SDS011;34357;51.948;6.132;2023-06-19T07:35:08;7.97;;;6.90;;
48578;SDS011;34357;51.948;6.132;2023-06-19T07:37:34;8.55;;;6.13;;
48578;SDS011;34357;51.948;6.132;2023-06-19T07:40:00;7.38;;;6.65;;
48578;SDS011;34357;51.948;6.132;2023-06-19T07:42:26;10.75;;;6.70;;
48578;SDS011;34357;51.948;6.132;2023-06-19T07:44:51;7.13;;;6.43;;
48578;SDS011;34357;51.948;6.132;2023-06-19T07:47:17;6.97;;;6.28;;
48578;SDS011;34357;51.948;6.132;2023-06-19T07:49:44;10.10;;;6.68;;
48578;SDS011;34357;51.948;6.132;2023-06-19T07:52:10;8.40;;;6.55;;
48578;SDS011;34357;51.948;6.132;2023-06-19T07:54:36;8.50;;;7.50;;
48578;SDS011;34357;51.948;6.132;2023-06-19T07:57:12;10.50;;;7.32;;
48578;SDS011;34357;51.948;6.132;2023-06-19T07:59:38;8.50;;;7.40;;
48578;SDS011;34357;51.948;6.132;2023-06-19T08:02:03;7.80;;;6.75;;
48578;SDS011;34357;51.948;6.132;2023-06-19T08:04:30;7.53;;;6.63;;
48578;SDS011;34357;51.948;6.132;2023-06-19T08:06:55;9.57;;;7.13;;
48578;SDS011;34357;51.948;6.132;2023-06-19T08:09:21;11.07;;;8.25;;
48578;SDS011;34357;51.948;6.132;2023-06-19T08:11:47;11.18;;;10.10;;
48578;SDS011;34357;51.948;6.132;2023-06-19T08:14:13;11.15;;;9.90;;
48578;SDS011;34357;51.948;6.132;2023-06-19T08:16:38;13.45;;;10.15;;
48578;SDS011;34357;51.948;6.132;2023-06-19T08:19:04;12.00;;;10.20;;
48578;SDS011;34357;51.948;6.132;2023-06-19T08:21:30;11.15;;;9.90;;
48578;SDS011;34357;51.948;6.132;2023-06-19T08:23:56;11.93;;;10.45;;
48578;SDS011;34357;51.948;6.132;2023-06-19T08:26:21;14.98;;;11.18;;
48578;SDS011;34357;51.948;6.132;2023-06-19T08:28:47;10.93;;;9.50;;
48578;SDS011;34357;51.948;6.132;2023-06-19T08:31:13;10.57;;;9.23;;
48578;SDS011;34357;51.948;6.132;2023-06-19T08:33:39;14.05;;;9.93;;
48578;SDS011;34357;51.948;6.132;2023-06-19T08:36:05;10.77;;;9.63;;
48578;SDS011;34357;51.948;6.132;2023-06-19T08:38:30;13.32;;;8.57;;
48578;SDS011;34357;51.948;6.132;2023-06-19T08:40:56;10.90;;;9.45;;
48578;SDS011;34357;51.948;6.132;2023-06-19T08:43:22;11.35;;;10.10;;
48578;SDS011;34357;51.948;6.132;2023-06-19T08:46:09;11.95;;;9.82;;
48578;SDS011;34357;51.948;6.132;2023-06-19T08:48:37;11.60;;;9.70;;
48578;SDS011;34357;51.948;6.132;2023-06-19T08:51:06;13.93;;;9.48;;
48578;SDS011;34357;51.948;6.132;2023-06-19T08:53:35;12.40;;;10.60;;
48578;SDS011;34357;51.948;6.132;2023-06-19T08:56:04;14.95;;;11.75;;
48578;SDS011;34357;51.948;6.132;2023-06-19T08:58:29;13.55;;;11.20;;
48578;SDS011;34357;51.948;6.132;2023-06-19T09:00:57;13.38;;;10.98;;
48578;SDS011;34357;51.948;6.132;2023-06-19T09:03:24;11.65;;;10.43;;
48578;SDS011;34357;51.948;6.132;2023-06-19T09:05:50;14.77;;;11.55;;
48578;SDS011;34357;51.948;6.132;2023-06-19T09:08:16;12.93;;;11.48;;
48578;SDS011;34357;51.948;6.132;2023-06-19T09:10:53;14.30;;;10.27;;
48578;SDS011;34357;51.948;6.132;2023-06-19T09:13:29;13.27;;;10.43;;
48578;SDS011;34357;51.948;6.132;2023-06-19T09:15:58;12.57;;;11.27;;
48578;SDS011;34357;51.948;6.132;2023-06-19T09:18:30;12.25;;;10.95;;
48578;SDS011;34357;51.948;6.132;2023-06-19T09:21:06;13.90;;;11.35;;
48578;SDS011;34357;51.948;6.132;2023-06-19T09:23:39;13.48;;;11.35;;
48578;SDS011;34357;51.948;6.132;2023-06-19T09:26:06;13.13;;;11.70;;
48578;SDS011;34357;51.948;6.132;2023-06-19T09:28:33;16.60;;;12.00;;
48578;SDS011;34357;51.948;6.132;2023-06-19T09:31:04;13.63;;;11.00;;
48578;SDS011;34357;51.948;6.132;2023-06-19T09:33:31;12.52;;;10.43;;
48578;SDS011;34357;51.948;6.132;2023-06-19T09:35:58;13.30;;;11.63;;
48578;SDS011;34357;51.948;6.132;2023-06-19T09:38:27;17.33;;;11.68;;
48578;SDS011;34357;51.948;6.132;2023-06-19T09:41:13;13.00;;;10.98;;
48578;SDS011;34357;51.948;6.132;2023-06-19T09:43:43;12.63;;;10.63;;
48578;SDS011;34357;51.948;6.132;2023-06-19T09:46:14;15.07;;;10.77;;
48578;SDS011;34357;51.948;6.132;2023-06-19T09:48:43;13.13;;;11.15;;
48578;SDS011;34357;51.948;6.132;2023-06-19T09:53:44;12.13;;;10.90;;
48578;SDS011;34357;51.948;6.132;2023-06-19T09:56:11;13.75;;;11.65;;
48578;SDS011;34357;51.948;6.132;2023-06-19T09:58:38;12.02;;;10.80;;
48578;SDS011;34357;51.948;6.132;2023-06-19T10:01:05;13.25;;;11.13;;
48578;SDS011;34357;51.948;6.132;2023-06-19T10:03:33;15.55;;;13.27;;
48578;SDS011;34357;51.948;6.132;2023-06-19T10:06:00;13.95;;;12.35;;
48578;SDS011;34357;51.948;6.132;2023-06-19T10:08:27;14.18;;;12.70;;
48578;SDS011;34357;51.948;6.132;2023-06-19T10:10:57;15.45;;;12.35;;
48578;SDS011;34357;51.948;6.132;2023-06-19T10:13:30;15.40;;;13.88;;
48578;SDS011;34357;51.948;6.132;2023-06-19T10:15:57;14.05;;;12.50;;
48578;SDS011;34357;51.948;6.132;2023-06-19T10:18:22;15.30;;;13.50;;
48578;SDS011;34357;51.948;6.132;2023-06-19T10:20:50;14.52;;;12.32;;
48578;SDS011;34357;51.948;6.132;2023-06-19T10:25:44;16.45;;;13.80;;
48578;SDS011;34357;51.948;6.132;2023-06-19T10:28:18;16.38;;;14.75;;
48578;SDS011;34357;51.948;6.132;2023-06-19T10:30:53;17.92;;;15.82;;
48578;SDS011;34357;51.948;6.132;2023-06-19T10:33:19;16.02;;;13.77;;
48578;SDS011;34357;51.948;6.132;2023-06-19T10:35:46;17.60;;;13.15;;
48578;SDS011;34357;51.948;6.132;2023-06-19T10:38:14;18.90;;;13.65;;
48578;SDS011;34357;51.948;6.132;2023-06-19T10:40:40;16.58;;;14.65;;
48578;SDS011;34357;51.948;6.132;2023-06-19T10:43:06;17.70;;;14.98;;
48578;SDS011;34357;51.948;6.132;2023-06-19T10:45:32;14.05;;;12.55;;
48578;SDS011;34357;51.948;6.132;2023-06-19T10:48:00;14.60;;;12.75;;
48578;SDS011;34357;51.948;6.132;2023-06-19T10:50:27;15.40;;;13.18;;
48578;SDS011;34357;51.948;6.132;2023-06-19T10:52:54;18.88;;;13.57;;
48578;SDS011;34357;51.948;6.132;2023-06-19T10:55:20;13.85;;;12.35;;
48578;SDS011;34357;51.948;6.132;2023-06-19T10:57:47;15.93;;;13.55;;
48578;SDS011;34357;51.948;6.132;2023-06-19T11:00:30;19.02;;;14.50;;
48578;SDS011;34357;51.948;6.132;2023-06-19T11:02:58;16.48;;;11.77;;
48578;SDS011;34357;51.948;6.132;2023-06-19T11:05:25;14.13;;;12.73;;
48578;SDS011;34357;51.948;6.132;2023-06-19T11:07:55;16.05;;;14.02;;
48578;SDS011;34357;51.948;6.132;2023-06-19T11:12:49;14.55;;;12.98;;
48578;SDS011;34357;51.948;6.132;2023-06-19T11:15:18;16.00;;;13.65;;
48578;SDS011;34357;51.948;6.132;2023-06-19T11:17:45;18.70;;;14.93;;
48578;SDS011;34357;51.948;6.132;2023-06-19T11:20:12;18.17;;;16.25;;
48578;SDS011;34357;51.948;6.132;2023-06-19T11:22:39;15.90;;;14.40;;
48578;SDS011;34357;51.948;6.132;2023-06-19T11:25:06;16.08;;;13.82;;
48578;SDS011;34357;51.948;6.132;2023-06-19T11:27:33;17.65;;;15.15;;
48578;SDS011;34357;51.948;6.132;2023-06-19T11:30:02;14.60;;;13.00;;
48578;SDS011;34357;51.948;6.132;2023-06-19T11:32:30;19.83;;;17.00;;
48578;SDS011;34357;51.948;6.132;2023-06-19T11:35:03;20.30;;;17.25;;
48578;SDS011;34357;51.948;6.132;2023-06-19T11:37:32;19.85;;;17.77;;
48578;SDS011;34357;51.948;6.132;2023-06-19T11:40:00;17.38;;;15.45;;
48578;SDS011;34357;51.948;6.132;2023-06-19T11:42:26;20.33;;;14.07;;
48578;SDS011;34357;51.948;6.132;2023-06-19T11:44:59;21.35;;;15.25;;
48578;SDS011;34357;51.948;6.132;2023-06-19T11:47:29;18.13;;;14.63;;
48578;SDS011;34357;51.948;6.132;2023-06-19T11:49:56;22.52;;;16.17;;
48578;SDS011;34357;51.948;6.132;2023-06-19T11:52:22;19.25;;;15.85;;
48578;SDS011;34357;51.948;6.132;2023-06-19T11:54:48;22.25;;;18.42;;
48578;SDS011;34357;51.948;6.132;2023-06-19T11:57:14;21.60;;;16.33;;
48578;SDS011;34357;51.948;6.132;2023-06-19T11:59:40;18.13;;;16.23;;
48578;SDS011;34357;51.948;6.132;2023-06-19T12:02:06;16.75;;;15.15;;
48578;SDS011;34357;51.948;6.132;2023-06-19T12:04:32;18.48;;;14.65;;
48578;SDS011;34357;51.948;6.132;2023-06-19T12:06:58;19.52;;;17.63;;
48578;SDS011;34357;51.948;6.132;2023-06-19T12:09:25;22.35;;;16.92;;
48578;SDS011;34357;51.948;6.132;2023-06-19T12:11:50;17.55;;;15.40;;
48578;SDS011;34357;51.948;6.132;2023-06-19T12:14:16;18.30;;;15.70;;
48578;SDS011;34357;51.948;6.132;2023-06-19T12:16:43;16.98;;;15.40;;
48578;SDS011;34357;51.948;6.132;2023-06-19T12:19:10;20.27;;;17.17;;
48578;SDS011;34357;51.948;6.132;2023-06-19T12:21:36;22.65;;;15.82;;
48578;SDS011;34357;51.948;6.132;2023-06-19T12:24:02;17.52;;;15.70;;
48578;SDS011;34357;51.948;6.132;2023-06-19T12:26:28;16.38;;;14.77;;
48578;SDS011;34357;51.948;6.132;2023-06-19T12:28:54;14.60;;;12.35;;
48578;SDS011;34357;51.948;6.132;2023-06-19T12:31:20;16.58;;;14.80;;
48578;SDS011;34357;51.948;6.132;2023-06-19T12:33:46;16.40;;;14.40;;
48578;SDS011;34357;51.948;6.132;2023-06-19T12:36:16;19.77;;;15.18;;
48578;SDS011;34357;51.948;6.132;2023-06-19T12:38:41;15.45;;;13.85;;
48578;SDS011;34357;51.948;6.132;2023-06-19T12:41:07;15.38;;;13.80;;
48578;SDS011;34357;51.948;6.132;2023-06-19T12:43:33;16.83;;;14.30;;
48578;SDS011;34357;51.948;6.132;2023-06-19T12:45:59;20.17;;;16.73;;
48578;SDS011;34357;51.948;6.132;2023-06-19T12:48:26;17.10;;;14.98;;
48578;SDS011;34357;51.948;6.132;2023-06-19T12:50:52;17.88;;;15.90;;
48578;SDS011;34357;51.948;6.132;2023-06-19T12:53:18;17.88;;;15.05;;
48578;SDS011;34357;51.948;6.132;2023-06-19T12:55:43;16.90;;;13.38;;
48578;SDS011;34357;51.948;6.132;2023-06-19T12:58:09;14.68;;;12.38;;
48578;SDS011;34357;51.948;6.132;2023-06-19T13:00:36;16.35;;;13.95;;
48578;SDS011;34357;51.948;6.132;2023-06-19T13:03:02;19.63;;;15.32;;
48578;SDS011;34357;51.948;6.132;2023-06-19T13:05:28;16.15;;;14.55;;
48578;SDS011;34357;51.948;6.132;2023-06-19T13:07:54;14.77;;;12.50;;
48578;SDS011;34357;51.948;6.132;2023-06-19T13:10:20;18.92;;;14.93;;
48578;SDS011;34357;51.948;6.132;2023-06-19T13:12:45;19.70;;;13.45;;
48578;SDS011;34357;51.948;6.132;2023-06-19T13:15:11;17.67;;;13.88;;
48578;SDS011;34357;51.948;6.132;2023-06-19T13:17:37;16.08;;;14.43;;
48578;SDS011;34357;51.948;6.132;2023-06-19T13:20:03;15.30;;;12.85;;
48578;SDS011;34357;51.948;6.132;2023-06-19T13:22:30;19.63;;;12.52;;
48578;SDS011;34357;51.948;6.132;2023-06-19T13:24:56;13.85;;;12.50;;
48578;SDS011;34357;51.948;6.132;2023-06-19T13:27:22;15.85;;;13.15;;
48578;SDS011;34357;51.948;6.132;2023-06-19T13:29:48;15.00;;;12.52;;
48578;SDS011;34357;51.948;6.132;2023-06-19T13:32:14;15.38;;;13.02;;
48578;SDS011;34357;51.948;6.132;2023-06-19T13:34:39;16.30;;;12.45;;
48578;SDS011;34357;51.948;6.132;2023-06-19T13:37:05;14.10;;;11.35;;
48578;SDS011;34357;51.948;6.132;2023-06-19T13:39:31;16.00;;;10.52;;
48578;SDS011;34357;51.948;6.132;2023-06-19T13:41:57;17.85;;;10.75;;
48578;SDS011;34357;51.948;6.132;2023-06-19T13:44:25;12.98;;;9.40;;
48578;SDS011;34357;51.948;6.132;2023-06-19T13:46:51;10.52;;;7.85;;
48578;SDS011;34357;51.948;6.132;2023-06-19T13:49:17;8.80;;;7.90;;
48578;SDS011;34357;51.948;6.132;2023-06-19T13:51:43;10.98;;;8.30;;
48578;SDS011;34357;51.948;6.132;2023-06-19T13:54:09;13.50;;;8.82;;
48578;SDS011;34357;51.948;6.132;2023-06-19T13:56:35;11.30;;;9.23;;
48578;SDS011;34357;51.948;6.132;2023-06-19T13:59:02;14.63;;;9.35;;
48578;SDS011;34357;51.948;6.132;2023-06-19T14:01:28;16.52;;;11.02;;
48578;SDS011;34357;51.948;6.132;2023-06-19T14:03:53;13.05;;;10.07;;
48578;SDS011;34357;51.948;6.132;2023-06-19T14:06:19;10.98;;;8.98;;
48578;SDS011;34357;51.948;6.132;2023-06-19T14:08:45;10.60;;;7.93;;
48578;SDS011;34357;51.948;6.132;2023-06-19T14:11:10;13.18;;;10.30;;
48578;SDS011;34357;51.948;6.132;2023-06-19T14:13:36;13.38;;;9.98;;
48578;SDS011;34357;51.948;6.132;2023-06-19T14:16:02;14.30;;;9.98;;
48578;SDS011;34357;51.948;6.132;2023-06-19T14:18:28;14.65;;;11.40;;
48578;SDS011;34357;51.948;6.132;2023-06-19T14:20:54;12.80;;;8.77;;
48578;SDS011;34357;51.948;6.132;2023-06-19T14:23:20;11.63;;;8.65;;
48578;SDS011;34357;51.948;6.132;2023-06-19T14:25:46;10.82;;;7.53;;
48578;SDS011;34357;51.948;6.132;2023-06-19T14:28:12;13.85;;;8.95;;
48578;SDS011;34357;51.948;6.132;2023-06-19T14:30:39;10.65;;;8.95;;
48578;SDS011;34357;51.948;6.132;2023-06-19T14:33:05;15.02;;;10.35;;
48578;SDS011;34357;51.948;6.132;2023-06-19T14:35:32;11.00;;;9.82;;
48578;SDS011;34357;51.948;6.132;2023-06-19T14:37:57;10.70;;;8.55;;
48578;SDS011;34357;51.948;6.132;2023-06-19T14:40:23;11.50;;;8.18;;
48578;SDS011;34357;51.948;6.132;2023-06-19T14:42:49;10.10;;;8.70;;
48578;SDS011;34357;51.948;6.132;2023-06-19T14:45:14;13.55;;;10.23;;